sensor_id;sensor_type;location;lat;lon;timestamp;temperature;humidity
55331;DHT22;58851;42.984;20.336;2024-03-07T00:00:11;179.70;6502.40
55331;DHT22;58851;42.984;20.336;2024-03-07T00:02:42;179.60;6502.40
55331;DHT22;58851;42.984;20.336;2024-03-07T00:05:08;179.70;6502.40
55331;DHT22;58851;42.984;20.336;2024-03-07T00:07:34;179.70;6502.40
55331;DHT22;58851;42.984;20.336;2024-03-07T00:10:03;179.70;6502.40
55331;DHT22;58851;42.984;20.336;2024-03-07T00:12:29;179.60;6502.40
55331;DHT22;58851;42.984;20.336;2024-03-07T00:14:55;179.60;6502.40
55331;DHT22;58851;42.984;20.336;2024-03-07T00:17:21;179.70;6502.40
55331;DHT22;58851;42.984;20.336;2024-03-07T00:19:48;179.70;6502.40
55331;DHT22;58851;42.984;20.336;2024-03-07T00:22:15;179.60;6502.40
55331;DHT22;58851;42.984;20.336;2024-03-07T00:24:40;179.60;6502.40
55331;DHT22;58851;42.984;20.336;2024-03-07T00:27:08;179.60;6502.40
55331;DHT22;58851;42.984;20.336;2024-03-07T00:29:34;179.40;6502.40
55331;DHT22;58851;42.984;20.336;2024-03-07T00:32:04;179.40;6502.40
55331;DHT22;58851;42.984;20.336;2024-03-07T00:34:29;179.40;6502.40
55331;DHT22;58851;42.984;20.336;2024-03-07T00:36:55;179.50;6502.40
55331;DHT22;58851;42.984;20.336;2024-03-07T00:39:24;179.60;6502.40
55331;DHT22;58851;42.984;20.336;2024-03-07T00:41:51;179.60;6502.40
55331;DHT22;58851;42.984;20.336;2024-03-07T00:44:17;179.60;6502.40
55331;DHT22;58851;42.984;20.336;2024-03-07T00:46:43;179.60;6502.40
55331;DHT22;58851;42.984;20.336;2024-03-07T00:49:09;179.70;6502.40
55331;DHT22;58851;42.984;20.336;2024-03-07T00:51:34;179.70;6502.40
55331;DHT22;58851;42.984;20.336;2024-03-07T00:54:01;179.70;6502.40
55331;DHT22;58851;42.984;20.336;2024-03-07T00:56:26;179.80;6502.40
55331;DHT22;58851;42.984;20.336;2024-03-07T00:58:54;179.80;6502.40
55331;DHT22;58851;42.984;20.336;2024-03-07T01:01:19;179.80;6502.40
55331;DHT22;58851;42.984;20.336;2024-03-07T01:03:45;179.80;6502.40
55331;DHT22;58851;42.984;20.336;2024-03-07T01:06:11;179.80;6502.40
55331;DHT22;58851;42.984;20.336;2024-03-07T01:08:37;179.80;6502.40
55331;DHT22;58851;42.984;20.336;2024-03-07T01:11:04;179.70;6502.40
55331;DHT22;58851;42.984;20.336;2024-03-07T01:13:41;179.70;6502.40
55331;DHT22;58851;42.984;20.336;2024-03-07T01:16:07;179.70;6502.40
55331;DHT22;58851;42.984;20.336;2024-03-07T01:18:33;179.60;6502.40
55331;DHT22;58851;42.984;20.336;2024-03-07T01:21:03;179.60;6502.40
55331;DHT22;58851;42.984;20.336;2024-03-07T01:23:30;179.60;6502.40
55331;DHT22;58851;42.984;20.336;2024-03-07T01:25:57;179.60;6502.40
55331;DHT22;58851;42.984;20.336;2024-03-07T01:28:24;179.50;6502.40
55331;DHT22;58851;42.984;20.336;2024-03-07T01:30:50;179.40;6502.40
55331;DHT22;58851;42.984;20.336;2024-03-07T01:33:17;179.30;6502.40
55331;DHT22;58851;42.984;20.336;2024-03-07T01:35:42;179.50;6502.40
55331;DHT22;58851;42.984;20.336;2024-03-07T01:38:08;179.50;6502.40
55331;DHT22;58851;42.984;20.336;2024-03-07T01:40:36;179.40;6502.40
55331;DHT22;58851;42.984;20.336;2024-03-07T01:43:02;179.30;6502.40
55331;DHT22;58851;42.984;20.336;2024-03-07T01:45:28;179.30;6502.40
55331;DHT22;58851;42.984;20.336;2024-03-07T01:47:54;179.30;6502.40
55331;DHT22;58851;42.984;20.336;2024-03-07T01:50:23;179.30;6502.40
55331;DHT22;58851;42.984;20.336;2024-03-07T01:52:50;179.30;6502.40
55331;DHT22;58851;42.984;20.336;2024-03-07T01:55:18;179.30;6502.40
55331;DHT22;58851;42.984;20.336;2024-03-07T01:57:44;179.30;6502.40
55331;DHT22;58851;42.984;20.336;2024-03-07T02:00:11;179.30;6502.40
55331;DHT22;58851;42.984;20.336;2024-03-07T02:02:37;179.30;6502.40
55331;DHT22;58851;42.984;20.336;2024-03-07T02:05:03;179.20;6502.40
55331;DHT22;58851;42.984;20.336;2024-03-07T02:07:30;154.40;6502.40
55331;DHT22;58851;42.984;20.336;2024-03-07T02:10:00;154.20;6502.40
55331;DHT22;58851;42.984;20.336;2024-03-07T02:12:26;154.20;6502.40
55331;DHT22;58851;42.984;20.336;2024-03-07T02:14:52;154.20;6502.40
55331;DHT22;58851;42.984;20.336;2024-03-07T02:17:18;154.20;6502.40
55331;DHT22;58851;42.984;20.336;2024-03-07T02:19:46;154.20;6502.40
55331;DHT22;58851;42.984;20.336;2024-03-07T02:22:12;154.10;6502.40
55331;DHT22;58851;42.984;20.336;2024-03-07T02:24:39;154.00;6502.40
55331;DHT22;58851;42.984;20.336;2024-03-07T02:27:04;154.00;6502.40
55331;DHT22;58851;42.984;20.336;2024-03-07T02:29:30;153.80;6502.40
55331;DHT22;58851;42.984;20.336;2024-03-07T02:31:56;153.80;6502.40
55331;DHT22;58851;42.984;20.336;2024-03-07T02:34:22;153.90;6502.40
55331;DHT22;58851;42.984;20.336;2024-03-07T02:36:48;154.00;6502.40
55331;DHT22;58851;42.984;20.336;2024-03-07T02:39:13;154.00;6502.40
55331;DHT22;58851;42.984;20.336;2024-03-07T02:41:40;154.00;6502.40
55331;DHT22;58851;42.984;20.336;2024-03-07T02:44:06;154.20;6502.40
55331;DHT22;58851;42.984;20.336;2024-03-07T02:46:32;154.30;6502.40
55331;DHT22;58851;42.984;20.336;2024-03-07T02:48:58;154.30;6502.40
55331;DHT22;58851;42.984;20.336;2024-03-07T02:51:24;154.20;6502.40
55331;DHT22;58851;42.984;20.336;2024-03-07T02:53:50;154.20;6502.40
55331;DHT22;58851;42.984;20.336;2024-03-07T02:56:16;154.20;6502.40
55331;DHT22;58851;42.984;20.336;2024-03-07T02:58:42;154.10;6502.40
55331;DHT22;58851;42.984;20.336;2024-03-07T03:01:07;154.10;6502.40
55331;DHT22;58851;42.984;20.336;2024-03-07T03:03:33;154.10;6502.40
55331;DHT22;58851;42.984;20.336;2024-03-07T03:05:59;154.10;6502.40
55331;DHT22;58851;42.984;20.336;2024-03-07T03:08:25;154.10;6502.40
55331;DHT22;58851;42.984;20.336;2024-03-07T03:10:54;154.10;6502.40
55331;DHT22;58851;42.984;20.336;2024-03-07T03:13:23;154.00;6502.40
55331;DHT22;58851;42.984;20.336;2024-03-07T03:15:49;154.10;6502.40
55331;DHT22;58851;42.984;20.336;2024-03-07T03:18:14;154.10;6502.40
55331;DHT22;58851;42.984;20.336;2024-03-07T03:20:41;154.00;6502.40
55331;DHT22;58851;42.984;20.336;2024-03-07T03:23:09;154.00;6502.40
55331;DHT22;58851;42.984;20.336;2024-03-07T03:25:39;154.00;6502.40
55331;DHT22;58851;42.984;20.336;2024-03-07T03:28:08;153.90;6502.40
55331;DHT22;58851;42.984;20.336;2024-03-07T03:30:41;153.90;6502.40
55331;DHT22;58851;42.984;20.336;2024-03-07T03:33:07;153.90;6502.40
55331;DHT22;58851;42.984;20.336;2024-03-07T03:35:34;153.80;6502.40
55331;DHT22;58851;42.984;20.336;2024-03-07T03:38:00;153.80;6502.40
55331;DHT22;58851;42.984;20.336;2024-03-07T03:40:26;153.80;6502.40
55331;DHT22;58851;42.984;20.336;2024-03-07T03:42:52;153.80;6502.40
55331;DHT22;58851;42.984;20.336;2024-03-07T03:45:18;153.70;6502.40
55331;DHT22;58851;42.984;20.336;2024-03-07T03:47:44;153.70;6502.40
55331;DHT22;58851;42.984;20.336;2024-03-07T03:50:13;153.70;6502.40
55331;DHT22;58851;42.984;20.336;2024-03-07T03:52:40;153.60;6502.40
55331;DHT22;58851;42.984;20.336;2024-03-07T03:55:07;153.60;6502.40
55331;DHT22;58851;42.984;20.336;2024-03-07T03:57:35;128.90;6502.40
55331;DHT22;58851;42.984;20.336;2024-03-07T04:00:02;128.90;6502.40
55331;DHT22;58851;42.984;20.336;2024-03-07T04:02:38;128.80;6502.40
55331;DHT22;58851;42.984;20.336;2024-03-07T04:05:04;128.60;6502.40
55331;DHT22;58851;42.984;20.336;2024-03-07T04:07:30;128.60;6502.40
55331;DHT22;58851;42.984;20.336;2024-03-07T04:09:57;128.50;6502.40
55331;DHT22;58851;42.984;20.336;2024-03-07T04:12:28;128.50;6502.40
55331;DHT22;58851;42.984;20.336;2024-03-07T04:14:54;128.60;6502.40
55331;DHT22;58851;42.984;20.336;2024-03-07T04:17:22;128.50;6502.40
55331;DHT22;58851;42.984;20.336;2024-03-07T04:19:48;128.50;6502.40
55331;DHT22;58851;42.984;20.336;2024-03-07T04:22:14;128.50;6502.40
55331;DHT22;58851;42.984;20.336;2024-03-07T04:24:40;128.50;6502.40
55331;DHT22;58851;42.984;20.336;2024-03-07T04:27:06;128.50;6502.40
55331;DHT22;58851;42.984;20.336;2024-03-07T04:29:35;128.50;6502.40
55331;DHT22;58851;42.984;20.336;2024-03-07T04:32:01;128.60;6502.40
55331;DHT22;58851;42.984;20.336;2024-03-07T04:34:29;128.60;6502.40
55331;DHT22;58851;42.984;20.336;2024-03-07T04:36:58;128.60;6502.40
55331;DHT22;58851;42.984;20.336;2024-03-07T04:39:27;128.70;6502.40
55331;DHT22;58851;42.984;20.336;2024-03-07T04:42:05;128.70;6502.40
55331;DHT22;58851;42.984;20.336;2024-03-07T04:44:35;128.60;6502.40
55331;DHT22;58851;42.984;20.336;2024-03-07T04:47:02;128.60;6502.40
55331;DHT22;58851;42.984;20.336;2024-03-07T04:49:31;128.60;6502.40
55331;DHT22;58851;42.984;20.336;2024-03-07T04:51:59;128.50;6502.40
55331;DHT22;58851;42.984;20.336;2024-03-07T04:54:26;128.50;6502.40
55331;DHT22;58851;42.984;20.336;2024-03-07T04:56:52;128.50;6502.40
55331;DHT22;58851;42.984;20.336;2024-03-07T04:59:19;128.60;6502.40
55331;DHT22;58851;42.984;20.336;2024-03-07T05:01:46;128.50;6502.40
55331;DHT22;58851;42.984;20.336;2024-03-07T05:04:13;128.40;6502.40
55331;DHT22;58851;42.984;20.336;2024-03-07T05:06:39;128.20;6502.40
55331;DHT22;58851;42.984;20.336;2024-03-07T05:09:08;128.30;6502.40
55331;DHT22;58851;42.984;20.336;2024-03-07T05:11:54;128.30;6502.40
55331;DHT22;58851;42.984;20.336;2024-03-07T05:14:21;128.30;6502.40
55331;DHT22;58851;42.984;20.336;2024-03-07T05:16:50;128.30;6502.40
55331;DHT22;58851;42.984;20.336;2024-03-07T05:19:34;128.40;6502.40
55331;DHT22;58851;42.984;20.336;2024-03-07T05:22:01;128.40;6502.40
55331;DHT22;58851;42.984;20.336;2024-03-07T05:24:28;128.30;6502.40
55331;DHT22;58851;42.984;20.336;2024-03-07T05:26:54;128.40;6502.40
55331;DHT22;58851;42.984;20.336;2024-03-07T05:29:20;128.40;6502.40
55331;DHT22;58851;42.984;20.336;2024-03-07T05:31:46;128.30;6502.40
55331;DHT22;58851;42.984;20.336;2024-03-07T05:34:17;128.20;6502.40
55331;DHT22;58851;42.984;20.336;2024-03-07T05:36:48;128.30;6502.40
55331;DHT22;58851;42.984;20.336;2024-03-07T05:39:16;128.30;6502.40
55331;DHT22;58851;42.984;20.336;2024-03-07T05:41:44;128.30;6502.40
55331;DHT22;58851;42.984;20.336;2024-03-07T05:44:13;128.30;6502.40
55331;DHT22;58851;42.984;20.336;2024-03-07T05:46:43;128.30;6502.40
55331;DHT22;58851;42.984;20.336;2024-03-07T05:49:14;128.20;6502.40
55331;DHT22;58851;42.984;20.336;2024-03-07T05:51:41;128.40;6502.40
55331;DHT22;58851;42.984;20.336;2024-03-07T05:54:13;128.50;6502.40
55331;DHT22;58851;42.984;20.336;2024-03-07T05:56:40;128.60;6502.40
55331;DHT22;58851;42.984;20.336;2024-03-07T05:59:07;128.50;6502.40
55331;DHT22;58851;42.984;20.336;2024-03-07T06:01:35;128.10;6502.40
55331;DHT22;58851;42.984;20.336;2024-03-07T06:04:03;103.30;6476.80
55331;DHT22;58851;42.984;20.336;2024-03-07T06:06:32;103.30;6476.80
55331;DHT22;58851;42.984;20.336;2024-03-07T06:09:09;103.30;6476.80
55331;DHT22;58851;42.984;20.336;2024-03-07T06:11:35;103.30;6476.80
55331;DHT22;58851;42.984;20.336;2024-03-07T06:14:02;103.20;6476.80
55331;DHT22;58851;42.984;20.336;2024-03-07T06:16:33;103.30;6476.80
55331;DHT22;58851;42.984;20.336;2024-03-07T06:19:03;103.20;6476.80
55331;DHT22;58851;42.984;20.336;2024-03-07T06:21:29;103.20;6476.80
55331;DHT22;58851;42.984;20.336;2024-03-07T06:23:59;128.00;6502.40
55331;DHT22;58851;42.984;20.336;2024-03-07T06:26:35;128.20;6502.40
55331;DHT22;58851;42.984;20.336;2024-03-07T06:29:17;128.50;6502.40
55331;DHT22;58851;42.984;20.336;2024-03-07T06:31:43;128.50;6502.40
55331;DHT22;58851;42.984;20.336;2024-03-07T06:34:12;128.50;6502.40
55331;DHT22;58851;42.984;20.336;2024-03-07T06:36:38;128.40;6502.40
55331;DHT22;58851;42.984;20.336;2024-03-07T06:39:04;128.20;6502.40
55331;DHT22;58851;42.984;20.336;2024-03-07T06:41:34;128.10;6502.40
55331;DHT22;58851;42.984;20.336;2024-03-07T06:44:01;128.10;6502.40
55331;DHT22;58851;42.984;20.336;2024-03-07T06:46:26;128.10;6502.40
55331;DHT22;58851;42.984;20.336;2024-03-07T06:48:52;128.20;6502.40
55331;DHT22;58851;42.984;20.336;2024-03-07T06:51:18;128.20;6502.40
55331;DHT22;58851;42.984;20.336;2024-03-07T06:53:44;128.20;6502.40
55331;DHT22;58851;42.984;20.336;2024-03-07T06:56:13;128.40;6502.40
55331;DHT22;58851;42.984;20.336;2024-03-07T06:58:40;128.50;6502.40
55331;DHT22;58851;42.984;20.336;2024-03-07T07:01:06;128.60;6502.40
55331;DHT22;58851;42.984;20.336;2024-03-07T07:03:37;128.50;6502.40
55331;DHT22;58851;42.984;20.336;2024-03-07T07:06:04;128.80;6502.40
55331;DHT22;58851;42.984;20.336;2024-03-07T07:08:33;128.90;6502.40
55331;DHT22;58851;42.984;20.336;2024-03-07T07:10:59;153.70;6502.40
55331;DHT22;58851;42.984;20.336;2024-03-07T07:13:25;153.80;6502.40
55331;DHT22;58851;42.984;20.336;2024-03-07T07:15:51;154.00;6502.40
55331;DHT22;58851;42.984;20.336;2024-03-07T07:18:19;154.00;6502.40
55331;DHT22;58851;42.984;20.336;2024-03-07T07:20:44;154.20;6502.40
55331;DHT22;58851;42.984;20.336;2024-03-07T07:23:10;154.30;6502.40
55331;DHT22;58851;42.984;20.336;2024-03-07T07:25:36;154.40;6502.40
55331;DHT22;58851;42.984;20.336;2024-03-07T07:28:02;154.40;6502.40
55331;DHT22;58851;42.984;20.336;2024-03-07T07:30:30;154.40;6502.40
55331;DHT22;58851;42.984;20.336;2024-03-07T07:32:56;154.50;6502.40
55331;DHT22;58851;42.984;20.336;2024-03-07T07:35:22;154.40;6502.40
55331;DHT22;58851;42.984;20.336;2024-03-07T07:37:49;154.40;6502.40
55331;DHT22;58851;42.984;20.336;2024-03-07T07:40:17;154.20;6502.40
55331;DHT22;58851;42.984;20.336;2024-03-07T07:42:50;154.40;6502.40
55331;DHT22;58851;42.984;20.336;2024-03-07T07:45:18;154.50;6502.40
55331;DHT22;58851;42.984;20.336;2024-03-07T07:47:45;179.20;6502.40
55331;DHT22;58851;42.984;20.336;2024-03-07T07:50:12;179.20;6502.40
55331;DHT22;58851;42.984;20.336;2024-03-07T07:52:47;179.40;6502.40
55331;DHT22;58851;42.984;20.336;2024-03-07T07:55:26;179.60;6502.40
55331;DHT22;58851;42.984;20.336;2024-03-07T08:00:21;179.40;6502.40
55331;DHT22;58851;42.984;20.336;2024-03-07T08:02:52;179.70;6502.40
55331;DHT22;58851;42.984;20.336;2024-03-07T08:05:23;179.70;6502.40
55331;DHT22;58851;42.984;20.336;2024-03-07T08:07:50;180.10;6502.40
55331;DHT22;58851;42.984;20.336;2024-03-07T08:10:17;180.10;6502.40
55331;DHT22;58851;42.984;20.336;2024-03-07T08:12:43;180.10;6502.40
55331;DHT22;58851;42.984;20.336;2024-03-07T08:15:11;205.00;6502.40
55331;DHT22;58851;42.984;20.336;2024-03-07T08:17:45;205.20;6502.40
55331;DHT22;58851;42.984;20.336;2024-03-07T08:20:16;205.40;6502.40
55331;DHT22;58851;42.984;20.336;2024-03-07T08:22:44;205.70;6502.40
55331;DHT22;58851;42.984;20.336;2024-03-07T08:25:14;230.40;6502.40
55331;DHT22;58851;42.984;20.336;2024-03-07T08:27:41;230.50;6502.40
55331;DHT22;58851;42.984;20.336;2024-03-07T08:30:09;230.60;6502.40
55331;DHT22;58851;42.984;20.336;2024-03-07T08:32:44;230.70;6502.40
55331;DHT22;58851;42.984;20.336;2024-03-07T08:35:10;230.90;6502.40
55331;DHT22;58851;42.984;20.336;2024-03-07T08:40:04;256.10;6502.40
55331;DHT22;58851;42.984;20.336;2024-03-07T08:42:31;256.10;6502.40
55331;DHT22;58851;42.984;20.336;2024-03-07T08:45:00;256.10;6502.40
55331;DHT22;58851;42.984;20.336;2024-03-07T08:47:26;231.30;6502.40
55331;DHT22;58851;42.984;20.336;2024-03-07T08:49:54;256.00;6502.40
55331;DHT22;58851;42.984;20.336;2024-03-07T08:52:20;256.00;6502.40
55331;DHT22;58851;42.984;20.336;2024-03-07T08:54:45;231.30;6502.40
55331;DHT22;58851;42.984;20.336;2024-03-07T08:57:12;256.20;6502.40
55331;DHT22;58851;42.984;20.336;2024-03-07T08:59:40;256.20;6502.40
55331;DHT22;58851;42.984;20.336;2024-03-07T09:02:05;256.50;6502.40
55331;DHT22;58851;42.984;20.336;2024-03-07T09:04:31;256.30;6502.40
55331;DHT22;58851;42.984;20.336;2024-03-07T09:06:57;256.50;6502.40
55331;DHT22;58851;42.984;20.336;2024-03-07T09:09:23;256.70;6502.40
55331;DHT22;58851;42.984;20.336;2024-03-07T09:11:49;256.90;6502.40
55331;DHT22;58851;42.984;20.336;2024-03-07T09:14:15;281.70;6528.00
55331;DHT22;58851;42.984;20.336;2024-03-07T09:16:41;281.70;6528.00
55331;DHT22;58851;42.984;20.336;2024-03-07T09:19:07;281.90;6528.00
55331;DHT22;58851;42.984;20.336;2024-03-07T09:21:35;281.90;6528.00
55331;DHT22;58851;42.984;20.336;2024-03-07T09:24:01;282.10;6528.00
55331;DHT22;58851;42.984;20.336;2024-03-07T09:26:26;282.20;6528.00
55331;DHT22;58851;42.984;20.336;2024-03-07T09:28:52;282.30;6528.00
55331;DHT22;58851;42.984;20.336;2024-03-07T09:31:19;282.40;6528.00
55331;DHT22;58851;42.984;20.336;2024-03-07T09:33:46;282.50;6528.00
55331;DHT22;58851;42.984;20.336;2024-03-07T09:36:13;307.40;128.00
55331;DHT22;58851;42.984;20.336;2024-03-07T09:38:40;307.30;128.00
55331;DHT22;58851;42.984;20.336;2024-03-07T09:41:06;307.20;128.00
55331;DHT22;58851;42.984;20.336;2024-03-07T09:43:33;282.50;6528.00
55331;DHT22;58851;42.984;20.336;2024-03-07T09:46:02;282.30;6528.00
55331;DHT22;58851;42.984;20.336;2024-03-07T09:48:28;281.80;6528.00
55331;DHT22;58851;42.984;20.336;2024-03-07T09:50:55;282.00;6528.00
55331;DHT22;58851;42.984;20.336;2024-03-07T09:53:24;281.70;6528.00
55331;DHT22;58851;42.984;20.336;2024-03-07T09:55:53;256.70;6502.40
55331;DHT22;58851;42.984;20.336;2024-03-07T09:58:19;256.80;6502.40
55331;DHT22;58851;42.984;20.336;2024-03-07T10:00:46;281.60;6528.00
55331;DHT22;58851;42.984;20.336;2024-03-07T10:03:18;281.60;6528.00
55331;DHT22;58851;42.984;20.336;2024-03-07T10:05:46;256.70;6502.40
55331;DHT22;58851;42.984;20.336;2024-03-07T10:08:11;256.80;6502.40
55331;DHT22;58851;42.984;20.336;2024-03-07T10:10:39;256.60;6502.40
55331;DHT22;58851;42.984;20.336;2024-03-07T10:13:05;256.50;6502.40
55331;DHT22;58851;42.984;20.336;2024-03-07T10:15:33;256.40;6502.40
55331;DHT22;58851;42.984;20.336;2024-03-07T10:17:59;256.40;6502.40
55331;DHT22;58851;42.984;20.336;2024-03-07T10:20:28;256.70;6502.40
55331;DHT22;58851;42.984;20.336;2024-03-07T10:22:54;281.60;6528.00
55331;DHT22;58851;42.984;20.336;2024-03-07T10:25:21;256.90;6502.40
55331;DHT22;58851;42.984;20.336;2024-03-07T10:27:51;256.90;6502.40
55331;DHT22;58851;42.984;20.336;2024-03-07T10:30:17;281.60;6528.00
55331;DHT22;58851;42.984;20.336;2024-03-07T10:32:47;281.70;6528.00
55331;DHT22;58851;42.984;20.336;2024-03-07T10:35:13;281.90;6528.00
55331;DHT22;58851;42.984;20.336;2024-03-07T10:37:41;282.20;6528.00
55331;DHT22;58851;42.984;20.336;2024-03-07T10:40:07;282.50;6528.00
55331;DHT22;58851;42.984;20.336;2024-03-07T10:42:46;282.50;6528.00
55331;DHT22;58851;42.984;20.336;2024-03-07T10:45:19;282.50;6528.00
55331;DHT22;58851;42.984;20.336;2024-03-07T10:47:55;307.60;128.00
55331;DHT22;58851;42.984;20.336;2024-03-07T10:51:02;307.70;128.00
55331;DHT22;58851;42.984;20.336;2024-03-07T10:53:24;307.90;128.00
55331;DHT22;58851;42.984;20.336;2024-03-07T10:59:18;308.10;128.00
55331;DHT22;58851;42.984;20.336;2024-03-07T11:04:30;333.30;128.00
55331;DHT22;58851;42.984;20.336;2024-03-07T11:06:56;333.70;128.00
55331;DHT22;58851;42.984;20.336;2024-03-07T11:09:25;358.80;128.00
55331;DHT22;58851;42.984;20.336;2024-03-07T11:11:56;359.00;128.00
55331;DHT22;58851;42.984;20.336;2024-03-07T11:14:23;384.00;128.00
55331;DHT22;58851;42.984;20.336;2024-03-07T11:16:49;384.00;128.00
55331;DHT22;58851;42.984;20.336;2024-03-07T11:19:27;384.00;128.00
55331;DHT22;58851;42.984;20.336;2024-03-07T11:21:55;359.00;128.00
55331;DHT22;58851;42.984;20.336;2024-03-07T11:24:29;358.40;128.00
55331;DHT22;58851;42.984;20.336;2024-03-07T11:27:03;332.90;128.00
55331;DHT22;58851;42.984;20.336;2024-03-07T11:32:12;308.10;128.00
55331;DHT22;58851;42.984;20.336;2024-03-07T11:34:40;308.10;128.00
55331;DHT22;58851;42.984;20.336;2024-03-07T11:37:17;332.90;128.00
55331;DHT22;58851;42.984;20.336;2024-03-07T11:39:47;333.10;128.00
55331;DHT22;58851;42.984;20.336;2024-03-07T11:42:29;333.30;128.00
55331;DHT22;58851;42.984;20.336;2024-03-07T11:45:02;333.40;128.00
55331;DHT22;58851;42.984;20.336;2024-03-07T11:47:38;333.30;128.00
55331;DHT22;58851;42.984;20.336;2024-03-07T11:50:07;333.20;128.00
55331;DHT22;58851;42.984;20.336;2024-03-07T11:52:37;333.30;128.00
55331;DHT22;58851;42.984;20.336;2024-03-07T11:55:08;333.40;128.00
55331;DHT22;58851;42.984;20.336;2024-03-07T11:57:34;333.60;128.00
55331;DHT22;58851;42.984;20.336;2024-03-07T12:00:01;333.40;128.00
55331;DHT22;58851;42.984;20.336;2024-03-07T12:02:33;333.50;128.00
55331;DHT22;58851;42.984;20.336;2024-03-07T12:04:59;333.50;128.00
55331;DHT22;58851;42.984;20.336;2024-03-07T12:07:26;333.70;128.00
55331;DHT22;58851;42.984;20.336;2024-03-07T12:09:52;358.40;128.00
55331;DHT22;58851;42.984;20.336;2024-03-07T12:12:22;358.40;128.00
55331;DHT22;58851;42.984;20.336;2024-03-07T12:14:49;358.40;128.00
55331;DHT22;58851;42.984;20.336;2024-03-07T12:17:18;358.40;128.00
55331;DHT22;58851;42.984;20.336;2024-03-07T12:19:44;333.70;128.00
55331;DHT22;58851;42.984;20.336;2024-03-07T12:22:13;358.40;128.00
55331;DHT22;58851;42.984;20.336;2024-03-07T12:24:40;358.40;128.00
55331;DHT22;58851;42.984;20.336;2024-03-07T12:27:10;358.60;128.00
55331;DHT22;58851;42.984;20.336;2024-03-07T12:29:39;358.50;128.00
55331;DHT22;58851;42.984;20.336;2024-03-07T12:32:06;358.60;128.00
55331;DHT22;58851;42.984;20.336;2024-03-07T12:34:34;358.40;128.00
55331;DHT22;58851;42.984;20.336;2024-03-07T12:37:07;333.50;128.00
55331;DHT22;58851;42.984;20.336;2024-03-07T12:39:34;333.20;128.00
55331;DHT22;58851;42.984;20.336;2024-03-07T12:42:22;333.00;128.00
55331;DHT22;58851;42.984;20.336;2024-03-07T12:44:50;332.90;128.00
55331;DHT22;58851;42.984;20.336;2024-03-07T12:47:17;308.10;128.00
55331;DHT22;58851;42.984;20.336;2024-03-07T12:49:44;307.90;128.00
55331;DHT22;58851;42.984;20.336;2024-03-07T12:52:10;307.40;128.00
55331;DHT22;58851;42.984;20.336;2024-03-07T12:54:39;282.30;6528.00
55331;DHT22;58851;42.984;20.336;2024-03-07T12:57:08;282.00;6528.00
55331;DHT22;58851;42.984;20.336;2024-03-07T12:59:40;282.10;6528.00
55331;DHT22;58851;42.984;20.336;2024-03-07T13:02:12;281.80;6528.00
55331;DHT22;58851;42.984;20.336;2024-03-07T13:04:38;256.90;6502.40
55331;DHT22;58851;42.984;20.336;2024-03-07T13:07:05;256.60;6502.40
55331;DHT22;58851;42.984;20.336;2024-03-07T13:09:36;256.10;6502.40
55331;DHT22;58851;42.984;20.336;2024-03-07T13:12:04;231.20;6502.40
55331;DHT22;58851;42.984;20.336;2024-03-07T13:14:33;231.20;6502.40
55331;DHT22;58851;42.984;20.336;2024-03-07T13:17:00;231.20;6502.40
55331;DHT22;58851;42.984;20.336;2024-03-07T13:19:29;231.00;6502.40
55331;DHT22;58851;42.984;20.336;2024-03-07T13:21:55;230.90;6502.40
55331;DHT22;58851;42.984;20.336;2024-03-07T13:24:22;231.00;6502.40
55331;DHT22;58851;42.984;20.336;2024-03-07T13:26:48;231.10;6502.40
55331;DHT22;58851;42.984;20.336;2024-03-07T13:29:16;231.20;6502.40
55331;DHT22;58851;42.984;20.336;2024-03-07T13:31:45;231.30;6502.40
55331;DHT22;58851;42.984;20.336;2024-03-07T13:34:11;256.20;6502.40
55331;DHT22;58851;42.984;20.336;2024-03-07T13:36:44;256.10;6502.40
55331;DHT22;58851;42.984;20.336;2024-03-07T13:39:11;256.20;6502.40
55331;DHT22;58851;42.984;20.336;2024-03-07T13:41:43;256.10;6502.40
55331;DHT22;58851;42.984;20.336;2024-03-07T13:44:14;256.10;6502.40
55331;DHT22;58851;42.984;20.336;2024-03-07T13:46:40;231.30;6502.40
55331;DHT22;58851;42.984;20.336;2024-03-07T13:49:07;256.10;6502.40
55331;DHT22;58851;42.984;20.336;2024-03-07T13:51:37;256.40;6502.40
55331;DHT22;58851;42.984;20.336;2024-03-07T13:54:06;256.50;6502.40
55331;DHT22;58851;42.984;20.336;2024-03-07T13:59:35;281.80;6528.00
55331;DHT22;58851;42.984;20.336;2024-03-07T14:13:45;308.10;128.00
55331;DHT22;58851;42.984;20.336;2024-03-07T14:22:07;307.40;128.00
55331;DHT22;58851;42.984;20.336;2024-03-07T14:25:07;307.40;128.00
55331;DHT22;58851;42.984;20.336;2024-03-07T14:27:53;282.30;6528.00
55331;DHT22;58851;42.984;20.336;2024-03-07T14:30:41;307.90;128.00
55331;DHT22;58851;42.984;20.336;2024-03-07T14:33:10;307.70;128.00
55331;DHT22;58851;42.984;20.336;2024-03-07T14:38:31;282.50;6528.00
55331;DHT22;58851;42.984;20.336;2024-03-07T14:41:05;281.90;6528.00
55331;DHT22;58851;42.984;20.336;2024-03-07T14:43:34;256.90;6502.40
55331;DHT22;58851;42.984;20.336;2024-03-07T14:46:00;256.80;6502.40
55331;DHT22;58851;42.984;20.336;2024-03-07T14:48:26;256.50;6502.40
55331;DHT22;58851;42.984;20.336;2024-03-07T14:50:53;256.30;6502.40
55331;DHT22;58851;42.984;20.336;2024-03-07T14:53:19;256.30;6502.40
55331;DHT22;58851;42.984;20.336;2024-03-07T14:55:48;256.10;6502.40
55331;DHT22;58851;42.984;20.336;2024-03-07T14:58:14;256.10;6502.40
55331;DHT22;58851;42.984;20.336;2024-03-07T15:00:42;231.20;6502.40
55331;DHT22;58851;42.984;20.336;2024-03-07T15:03:15;230.80;6502.40
55331;DHT22;58851;42.984;20.336;2024-03-07T15:05:44;230.80;6502.40
55331;DHT22;58851;42.984;20.336;2024-03-07T15:08:12;230.70;6502.40
55331;DHT22;58851;42.984;20.336;2024-03-07T15:10:43;230.70;6502.40
55331;DHT22;58851;42.984;20.336;2024-03-07T15:13:12;230.60;6502.40
55331;DHT22;58851;42.984;20.336;2024-03-07T15:15:39;205.70;6502.40
55331;DHT22;58851;42.984;20.336;2024-03-07T15:18:06;205.50;6502.40